Bains, Louisiana
Current Conditions -  °F | °C
As of 3:35 AM on Saturday 20 Dec 2014 (Local Time) from KHZR Reporting Station
Overcast Overcast  
Wind Chill: 43°   Ceiling: 800
Heat Index: 47°   Visibility: 10mi
Dew Point: 46°   Wind: 8mph
Humidity: 95%   Direction: 10°N
Pressure: 30.13"   Gusts: NA
Location:  30.8804°N, 91.4243°W
Report Text: KHZR 200935Z AUTO 01007KT 10SM OVC008 09/08 A3013 RMK AO2 T00850077
Loading
Personal Weather Stations






























Interactive Weather Map New forecast layout! Learn more

10-Day Weather Forecast

Advertisements
Track Severe Weather on mobile